PWSweather.com
Personal Weather Stations
Station Observations
FAUSKE
Nordland, Norway, FauskeNO 8200

Nordland, NorwayFauskeNO 8200

Lat: 67.2607586, Lon: 15.4114204

Elevation: 40

Station Type: Davis Vantage PRO2

http://www.bjornli.net/weather.html

Latest ConditionsUpdated 11:10:00 PM GMT+01:01 Friday, Oct 18, 2019
Currently Today's Max Today's Min Today's Average
Temperature 35.7°F2.1°C 39.9°F4.4°C 35.7°F2.1°C 38.0°F3.3°C
Dew Point 34.4°F1.3°C 36.3°F2.4°C 31.6°F-0.2°C 34.3°F1.3°C
Winds Calm Calm 9.0 mph -14.5 kmh - - 1.2 mph 1.9 kmh
Wind Gusts -- 16.0 mph25.7 kmh - -
Humidity 95% 95% 74% 87%
Pressure 29.68 in1005.1 mb 29.69 in1005.4 mb 29.64 in1003.7 mb -
Hour Temp Dew Point Humidity Winds Wind Gusts Pressure Precip Precip Rate Daily Precip Total
11:10 PM 35.7°F2.1°C 34.4°F1.3°C 95% Calm Calm -- 29.68 in1005.1 mb 0.01 in0.3 mm 0.00 in0.0 mm 0.05 in1.3 mm
11:00 PM 35.8°F2.1°C 34.5°F1.4°C 95% Calm Calm -- 29.67 in1004.7 mb 0.01 in0.3 mm 0.00 in0.0 mm 0.05 in1.3 mm
10:40 PM 35.8°F2.1°C 34.5°F1.4°C 95% Calm Calm -- 29.67 in1004.7 mb 0.01 in0.3 mm 0.00 in0.0 mm 0.05 in1.3 mm
10:30 PM 35.8°F2.1°C 34.5°F1.4°C 95% Calm Calm -- 29.67 in1004.7 mb 0.01 in0.3 mm 0.03 in0.8 mm 0.05 in1.3 mm
10:10 PM 35.8°F2.1°C 34.5°F1.4°C 95% Calm Calm -- 29.67 in1004.7 mb 0.00 in0.0 mm 0.00 in0.0 mm 0.04 in1.0 mm
10:00 PM 35.8°F2.1°C 34.5°F1.4°C 95% Calm Calm -- 29.67 in1004.7 mb 0.00 in0.0 mm 0.00 in0.0 mm 0.04 in1.0 mm
09:39 PM 35.8°F2.1°C 34.3°F1.3°C 94% Calm Calm -- 29.66 in1004.4 mb 0.00 in0.0 mm 0.00 in0.0 mm 0.04 in1.0 mm
09:30 PM 35.8°F2.1°C 34.3°F1.3°C 94% Calm Calm -- 29.67 in1004.7 mb 0.00 in0.0 mm 0.00 in0.0 mm 0.04 in1.0 mm
09:10 PM 36.0°F2.2°C 34.4°F1.3°C 94% Calm Calm -- 29.66 in1004.4 mb 0.00 in0.0 mm 0.00 in0.0 mm 0.04 in1.0 mm
09:00 PM 36.0°F2.2°C 34.4°F1.3°C 94% Calm Calm -- 29.66 in1004.4 mb 0.00 in0.0 mm 0.00 in0.0 mm 0.04 in1.0 mm
08:40 PM 36.1°F2.3°C 34.5°F1.4°C 94% Calm Calm -- 29.66 in1004.4 mb 0.01 in0.3 mm 0.00 in0.0 mm 0.04 in1.0 mm
08:30 PM 36.1°F2.3°C 34.5°F1.4°C 94% Calm Calm -- 29.66 in1004.4 mb 0.01 in0.3 mm 0.00 in0.0 mm 0.04 in1.0 mm
08:10 PM 36.4°F2.4°C 34.8°F1.6°C 94% Calm Calm -- 29.65 in1004.1 mb 0.01 in0.3 mm 0.00 in0.0 mm 0.04 in1.0 mm
08:00 PM 36.5°F2.5°C 34.9°F1.6°C 94% Calm Calm -- 29.65 in1004.1 mb 0.01 in0.3 mm 0.00 in0.0 mm 0.04 in1.0 mm
07:40 PM 36.8°F2.7°C 35.2°F1.8°C 94% Calm Calm -- 29.66 in1004.4 mb 0.02 in0.5 mm 0.06 in1.5 mm 0.04 in1.0 mm
07:30 PM 36.8°F2.7°C 35.2°F1.8°C 94% Calm Calm -- 29.66 in1004.4 mb 0.01 in0.3 mm 0.00 in0.0 mm 0.03 in0.8 mm
07:10 PM 36.8°F2.7°C 35.0°F1.7°C 93% Calm Calm -- 29.66 in1004.4 mb 0.01 in0.3 mm 0.00 in0.0 mm 0.03 in0.8 mm
07:00 PM 36.8°F2.7°C 35.0°F1.7°C 93% Calm Calm -- 29.66 in1004.4 mb 0.01 in0.3 mm 0.02 in0.5 mm 0.03 in0.8 mm
06:40 PM 36.8°F2.7°C 35.0°F1.7°C 93% Calm Calm -- 29.66 in1004.4 mb 0.00 in0.0 mm 0.00 in0.0 mm 0.02 in0.5 mm
06:30 PM 36.8°F2.7°C 35.0°F1.7°C 93% Calm Calm -- 29.66 in1004.4 mb 0.00 in0.0 mm 0.00 in0.0 mm 0.02 in0.5 mm
06:09 PM 36.9°F2.7°C 35.1°F1.7°C 93% Calm Calm -- 29.66 in1004.4 mb 0.00 in0.0 mm 0.00 in0.0 mm 0.02 in0.5 mm
06:00 PM 36.9°F2.7°C 34.8°F1.6°C 92% Calm Calm -- 29.66 in1004.4 mb 0.00 in0.0 mm 0.00 in0.0 mm 0.02 in0.5 mm
05:40 PM 37.0°F2.8°C 34.9°F1.6°C 92% Calm Calm -- 29.65 in1004.1 mb 0.00 in0.0 mm 0.00 in0.0 mm 0.02 in0.5 mm
05:30 PM 37.0°F2.8°C 34.9°F1.6°C 92% Calm Calm -- 29.65 in1004.1 mb 0.00 in0.0 mm 0.00 in0.0 mm 0.02 in0.5 mm
05:10 PM 37.3°F2.9°C 35.2°F1.8°C 92% Calm Calm -- 29.65 in1004.1 mb 0.00 in0.0 mm 0.00 in0.0 mm 0.02 in0.5 mm
05:00 PM 37.4°F3.0°C 35.0°F1.7°C 91% Calm Calm -- 29.65 in1004.1 mb 0.00 in0.0 mm 0.00 in0.0 mm 0.02 in0.5 mm
04:40 PM 37.7°F3.2°C 35.3°F1.8°C 91% Calm Calm -- 29.64 in1003.7 mb 0.00 in0.0 mm 0.00 in0.0 mm 0.02 in0.5 mm
04:30 PM 37.9°F3.3°C 35.5°F1.9°C 91% Calm Calm -- 29.64 in1003.7 mb 0.00 in0.0 mm 0.00 in0.0 mm 0.02 in0.5 mm
04:09 PM 38.2°F3.4°C 35.8°F2.1°C 91% Calm Calm -- 29.65 in1004.1 mb 0.00 in0.0 mm 0.00 in0.0 mm 0.02 in0.5 mm
04:00 PM 38.4°F3.6°C 35.7°F2.1°C 90% Calm Calm -- 29.65 in1004.1 mb 0.00 in0.0 mm 0.00 in0.0 mm 0.02 in0.5 mm
03:40 PM 38.5°F3.6°C 35.8°F2.1°C 90% Calm Calm -- 29.65 in1004.1 mb 0.00 in0.0 mm 0.00 in0.0 mm 0.02 in0.5 mm
03:30 PM 38.6°F3.7°C 35.9°F2.2°C 90% Calm Calm -- 29.64 in1003.7 mb 0.00 in0.0 mm 0.00 in0.0 mm 0.02 in0.5 mm
03:10 PM 38.7°F3.7°C 36.0°F2.2°C 90% Calm Calm -- 29.64 in1003.7 mb 0.00 in0.0 mm 0.00 in0.0 mm 0.02 in0.5 mm
03:00 PM 38.9°F3.8°C 36.2°F2.3°C 90% Calm Calm -- 29.64 in1003.7 mb 0.00 in0.0 mm 0.00 in0.0 mm 0.02 in0.5 mm
02:40 PM 39.0°F3.9°C 36.3°F2.4°C 90% Calm Calm -- 29.64 in1003.7 mb 0.00 in0.0 mm 0.00 in0.0 mm 0.02 in0.5 mm
02:30 PM 39.1°F3.9°C 36.1°F2.3°C 89% Calm Calm -- 29.64 in1003.7 mb 0.00 in0.0 mm 0.00 in0.0 mm 0.02 in0.5 mm
02:10 PM 39.1°F3.9°C 36.1°F2.3°C 89% Calm Calm -- 29.64 in1003.7 mb 0.00 in0.0 mm 0.00 in0.0 mm 0.02 in0.5 mm
02:00 PM 39.1°F3.9°C 36.1°F2.3°C 89% Calm Calm -- 29.64 in1003.7 mb 0.00 in0.0 mm 0.00 in0.0 mm 0.02 in0.5 mm
01:40 PM 39.1°F3.9°C 36.1°F2.3°C 89% Calm Calm -- 29.64 in1003.7 mb 0.00 in0.0 mm 0.00 in0.0 mm 0.02 in0.5 mm
01:30 PM 39.0°F3.9°C 36.0°F2.2°C 89% Calm Calm -- 29.65 in1004.1 mb 0.00 in0.0 mm 0.00 in0.0 mm 0.02 in0.5 mm
01:10 PM 39.2°F4.0°C 36.2°F2.3°C 89% Calm Calm -- 29.65 in1004.1 mb 0.01 in0.3 mm 0.00 in0.0 mm 0.02 in0.5 mm
01:00 PM 39.0°F3.9°C 35.8°F2.1°C 88% Calm Calm -- 29.65 in1004.1 mb 0.01 in0.3 mm 0.00 in0.0 mm 0.02 in0.5 mm
12:40 PM 38.9°F3.8°C 35.9°F2.2°C 89% Calm Calm -- 29.65 in1004.1 mb 0.01 in0.3 mm 0.00 in0.0 mm 0.02 in0.5 mm
12:30 PM 38.8°F3.8°C 35.6°F2.0°C 88% Calm Calm -- 29.65 in1004.1 mb 0.01 in0.3 mm 0.03 in0.8 mm 0.02 in0.5 mm
12:10 PM 38.9°F3.8°C 35.9°F2.2°C 89% Calm Calm -- 29.65 in1004.1 mb 0.00 in0.0 mm 0.00 in0.0 mm 0.01 in0.3 mm
12:00 PM 38.6°F3.7°C 35.6°F2.0°C 89% Calm Calm -- 29.65 in1004.1 mb 0.00 in0.0 mm 0.00 in0.0 mm 0.01 in0.3 mm
11:40 AM 38.7°F3.7°C 35.5°F1.9°C 88% Calm Calm 4.0 mph6.4 kmh 29.65 in1004.1 mb 0.00 in0.0 mm 0.00 in0.0 mm 0.01 in0.3 mm
11:30 AM 38.8°F3.8°C 35.6°F2.0°C 88% Calm Calm -- 29.65 in1004.1 mb 0.00 in0.0 mm 0.00 in0.0 mm 0.01 in0.3 mm
11:10 AM 38.8°F3.8°C 35.3°F1.8°C 87% Calm Calm -- 29.65 in1004.1 mb 0.00 in0.0 mm 0.00 in0.0 mm 0.01 in0.3 mm
11:00 AM 39.0°F3.9°C 35.5°F1.9°C 87% Calm Calm -- 29.65 in1004.1 mb 0.00 in0.0 mm 0.00 in0.0 mm 0.01 in0.3 mm
10:40 AM 39.0°F3.9°C 35.5°F1.9°C 87% Calm Calm -- 29.65 in1004.1 mb 0.00 in0.0 mm 0.00 in0.0 mm 0.01 in0.3 mm
10:30 AM 38.9°F3.8°C 35.1°F1.7°C 86% Calm Calm -- 29.65 in1004.1 mb 0.00 in0.0 mm 0.00 in0.0 mm 0.01 in0.3 mm
10:10 AM 39.2°F4.0°C 35.1°F1.7°C 85% Calm Calm -- 29.65 in1004.1 mb 0.00 in0.0 mm 0.00 in0.0 mm 0.01 in0.3 mm
10:00 AM 39.1°F3.9°C 35.0°F1.7°C 85% Calm Calm -- 29.65 in1004.1 mb 0.00 in0.0 mm 0.00 in0.0 mm 0.01 in0.3 mm
09:40 AM 38.9°F3.8°C 34.8°F1.6°C 85% Calm Calm -- 29.65 in1004.1 mb 0.00 in0.0 mm 0.00 in0.0 mm 0.01 in0.3 mm
09:30 AM 38.9°F3.8°C 34.8°F1.6°C 85% Calm Calm -- 29.65 in1004.1 mb 0.00 in0.0 mm 0.00 in0.0 mm 0.01 in0.3 mm
09:10 AM 38.6°F3.7°C 34.5°F1.4°C 85% 1.0 mph NE1.6 kmh NE 4.0 mph6.4 kmh 29.65 in1004.1 mb 0.00 in0.0 mm 0.00 in0.0 mm 0.01 in0.3 mm
09:00 AM 38.4°F3.6°C 34.3°F1.3°C 85% Calm Calm -- 29.64 in1003.7 mb 0.00 in0.0 mm 0.00 in0.0 mm 0.01 in0.3 mm
08:40 AM 38.2°F3.4°C 33.8°F1.0°C 84% Calm Calm -- 29.64 in1003.7 mb 0.00 in0.0 mm 0.00 in0.0 mm 0.01 in0.3 mm
08:30 AM 38.0°F3.3°C 33.6°F0.9°C 84% Calm Calm -- 29.64 in1003.7 mb 0.00 in0.0 mm 0.00 in0.0 mm 0.01 in0.3 mm
08:10 AM 37.7°F3.2°C 33.0°F0.6°C 83% Calm Calm 3.0 mph4.8 kmh 29.65 in1004.1 mb 0.00 in0.0 mm 0.00 in0.0 mm 0.01 in0.3 mm
08:00 AM 37.8°F3.2°C 33.1°F0.6°C 83% 2.0 mph NNE3.2 kmh NNE 3.0 mph4.8 kmh 29.64 in1003.7 mb 0.00 in0.0 mm 0.00 in0.0 mm 0.01 in0.3 mm
07:40 AM 37.9°F3.3°C 32.9°F0.5°C 82% Calm Calm 5.0 mph8.0 kmh 29.64 in1003.7 mb 0.00 in0.0 mm 0.00 in0.0 mm 0.01 in0.3 mm
07:30 AM 37.8°F3.2°C 32.8°F0.4°C 82% Calm Calm -- 29.64 in1003.7 mb 0.00 in0.0 mm 0.00 in0.0 mm 0.01 in0.3 mm
07:10 AM 37.6°F3.1°C 32.9°F0.5°C 83% Calm Calm 7.0 mph11.3 kmh 29.64 in1003.7 mb 0.00 in0.0 mm 0.00 in0.0 mm 0.01 in0.3 mm
07:00 AM 37.9°F3.3°C 32.9°F0.5°C 82% Calm Calm 2.0 mph3.2 kmh 29.64 in1003.7 mb 0.00 in0.0 mm 0.00 in0.0 mm 0.01 in0.3 mm
06:40 AM 38.0°F3.3°C 33.0°F0.6°C 82% 3.0 mph E4.8 kmh E 3.0 mph4.8 kmh 29.64 in1003.7 mb 0.00 in0.0 mm 0.00 in0.0 mm 0.01 in0.3 mm
06:30 AM 38.0°F3.3°C 33.0°F0.6°C 82% Calm Calm -- 29.64 in1003.7 mb 0.00 in0.0 mm 0.00 in0.0 mm 0.01 in0.3 mm
06:10 AM 37.9°F3.3°C 32.9°F0.5°C 82% Calm Calm -- 29.65 in1004.1 mb 0.00 in0.0 mm 0.00 in0.0 mm 0.01 in0.3 mm
06:00 AM 38.0°F3.3°C 33.0°F0.6°C 82% Calm Calm -- 29.65 in1004.1 mb 0.00 in0.0 mm 0.00 in0.0 mm 0.01 in0.3 mm
05:40 AM 38.2°F3.4°C 33.2°F0.7°C 82% Calm Calm -- 29.65 in1004.1 mb 0.00 in0.0 mm 0.00 in0.0 mm 0.01 in0.3 mm
05:30 AM 38.3°F3.5°C 33.3°F0.7°C 82% Calm Calm -- 29.65 in1004.1 mb 0.00 in0.0 mm 0.00 in0.0 mm 0.01 in0.3 mm
05:10 AM 38.5°F3.6°C 33.8°F1.0°C 83% Calm Calm 6.0 mph9.7 kmh 29.65 in1004.1 mb 0.00 in0.0 mm 0.00 in0.0 mm 0.01 in0.3 mm
05:00 AM 38.5°F3.6°C 33.8°F1.0°C 83% Calm Calm -- 29.65 in1004.1 mb 0.00 in0.0 mm 0.00 in0.0 mm 0.01 in0.3 mm
04:40 AM 38.4°F3.6°C 33.7°F0.9°C 83% 2.0 mph SSE3.2 kmh SSE 10.0 mph16.1 kmh 29.66 in1004.4 mb 0.00 in0.0 mm 0.00 in0.0 mm 0.01 in0.3 mm
04:30 AM 38.2°F3.4°C 33.8°F1.0°C 84% 3.0 mph SE4.8 kmh SE 3.0 mph4.8 kmh 29.66 in1004.4 mb 0.00 in0.0 mm 0.00 in0.0 mm 0.01 in0.3 mm
04:10 AM 37.9°F3.3°C 33.5°F0.8°C 84% 3.0 mph SSE4.8 kmh SSE 9.0 mph14.5 kmh 29.66 in1004.4 mb 0.00 in0.0 mm 0.00 in0.0 mm 0.01 in0.3 mm
04:00 AM 37.9°F3.3°C 33.5°F0.8°C 84% 5.0 mph SE8.0 kmh SE 5.0 mph8.0 kmh 29.67 in1004.7 mb 0.00 in0.0 mm 0.00 in0.0 mm 0.01 in0.3 mm
03:40 AM 37.9°F3.3°C 33.5°F0.8°C 84% 5.0 mph SE8.0 kmh SE 13.0 mph20.9 kmh 29.67 in1004.7 mb 0.01 in0.3 mm 0.00 in0.0 mm 0.01 in0.3 mm
03:30 AM 37.9°F3.3°C 33.5°F0.8°C 84% 5.0 mph SSE8.0 kmh SSE 5.0 mph8.0 kmh 29.67 in1004.7 mb 0.01 in0.3 mm 0.00 in0.0 mm 0.01 in0.3 mm
03:10 AM 38.2°F3.4°C 33.2°F0.7°C 82% 1.0 mph SE1.6 kmh SE 11.0 mph17.7 kmh 29.67 in1004.7 mb 0.01 in0.3 mm 0.00 in0.0 mm 0.01 in0.3 mm
03:00 AM 38.5°F3.6°C 32.9°F0.5°C 80% 6.0 mph SE9.7 kmh SE 9.0 mph14.5 kmh 29.67 in1004.7 mb 0.01 in0.3 mm 0.02 in0.5 mm 0.01 in0.3 mm
02:40 AM 39.1°F3.9°C 32.8°F0.4°C 78% 4.0 mph SSE6.4 kmh SSE 15.0 mph24.1 kmh 29.68 in1005.1 mb 0.00 in0.0 mm 0.00 in0.0 mm 0.00 in0.0 mm
02:30 AM 39.2°F4.0°C 32.9°F0.5°C 78% 6.0 mph SE9.7 kmh SE 9.0 mph14.5 kmh 29.68 in1005.1 mb 0.00 in0.0 mm 0.00 in0.0 mm 0.00 in0.0 mm
02:10 AM 39.7°F4.3°C 32.4°F0.2°C 75% 8.0 mph SE12.9 kmh SE 14.0 mph22.5 kmh 29.68 in1005.1 mb 0.00 in0.0 mm 0.00 in0.0 mm 0.00 in0.0 mm
02:00 AM 39.9°F4.4°C 32.3°F0.2°C 74% 9.0 mph SE14.5 kmh SE 9.0 mph14.5 kmh 29.68 in1005.1 mb 0.00 in0.0 mm 0.00 in0.0 mm 0.00 in0.0 mm
01:40 AM 39.5°F4.2°C 31.9°F-0.1°C 74% 9.0 mph ESE14.5 kmh ESE 16.0 mph25.7 kmh 29.68 in1005.1 mb 0.00 in0.0 mm 0.00 in0.0 mm 0.00 in0.0 mm
01:30 AM 39.5°F4.2°C 32.3°F0.2°C 75% 6.0 mph SE9.7 kmh SE 7.0 mph11.3 kmh 29.68 in1005.1 mb 0.00 in0.0 mm 0.00 in0.0 mm 0.00 in0.0 mm
01:10 AM 39.3°F4.1°C 32.1°F0.1°C 75% 6.0 mph SE9.7 kmh SE 15.0 mph24.1 kmh 29.68 in1005.1 mb 0.00 in0.0 mm 0.00 in0.0 mm 0.00 in0.0 mm
01:00 AM 39.3°F4.1°C 32.1°F0.1°C 75% 9.0 mph SE14.5 kmh SE 10.0 mph16.1 kmh 29.68 in1005.1 mb 0.00 in0.0 mm 0.00 in0.0 mm 0.00 in0.0 mm
12:40 AM 39.3°F4.1°C 32.1°F0.1°C 75% 5.0 mph SSE8.0 kmh SSE 15.0 mph24.1 kmh 29.69 in1005.4 mb 0.00 in0.0 mm 0.00 in0.0 mm 0.00 in0.0 mm
12:30 AM 39.3°F4.1°C 32.1°F0.1°C 75% 7.0 mph SE11.3 kmh SE 13.0 mph20.9 kmh 29.69 in1005.4 mb 0.00 in0.0 mm 0.00 in0.0 mm 0.00 in0.0 mm
12:10 AM 39.3°F4.1°C 31.7°F-0.2°C 74% 7.0 mph SE11.3 kmh SE 14.0 mph22.5 kmh 29.69 in1005.4 mb 0.00 in0.0 mm 0.00 in0.0 mm 0.00 in0.0 mm
12:00 AM 39.2°F4.0°C 31.6°F-0.2°C 74% 5.0 mph SE8.0 kmh SE 9.0 mph14.5 kmh 29.69 in1005.4 mb 0.00 in0.0 mm 0.00 in0.0 mm 0.00 in0.0 mm